Time;durP1;ratioP1;P1;durP2;ratioP2;P2;SDS_P1;SDS_P2;PMS_P1;PMS_P2;Temp;Humidity;BMP_temperature;BMP_pressure;BME280_temperature;BME280_humidity;BME280_pressure;Samples;Min_cycle;Max_cycle;Signal;HPM_P1;HPM_P2
2023/08/03 00:01:31;;;;;;;12.55;3.00;;;;;;;;;;5018424;28;20045;-81
2023/08/03 00:04:00;;;;;;;9.05;2.13;;;;;;;;;;5006102;28;20100;-81
2023/08/03 00:06:27;;;;;;;14.35;2.35;;;;;;;;;;5000889;28;20042;-81
2023/08/03 00:08:53;;;;;;;7.65;2.33;;;;;;;;;;5001670;28;20168;-82
2023/08/03 00:11:19;;;;;;;6.93;2.45;;;;;;;;;;5002714;28;20049;-82
2023/08/03 00:13:46;;;;;;;12.25;2.10;;;;;;;;;;5003017;28;20364;-83
2023/08/03 00:16:12;;;;;;;10.15;2.88;;;;;;;;;;5005334;28;20107;-83
2023/08/03 00:18:38;;;;;;;15.18;2.65;;;;;;;;;;5001865;28;20050;-82
2023/08/03 00:21:04;;;;;;;11.25;2.40;;;;;;;;;;5008365;28;20048;-82
2023/08/03 00:23:30;;;;;;;5.70;1.90;;;;;;;;;;4996099;28;20075;-82
2023/08/03 00:25:56;;;;;;;9.60;2.20;;;;;;;;;;5008058;28;20053;-83
2023/08/03 00:28:22;;;;;;;8.25;2.28;;;;;;;;;;5015038;28;20037;-84
2023/08/03 00:30:48;;;;;;;9.45;2.30;;;;;;;;;;5009180;28;20045;-84
2023/08/03 00:33:14;;;;;;;10.45;2.15;;;;;;;;;;5003718;28;20049;-82
2023/08/03 00:35:41;;;;;;;12.82;3.47;;;;;;;;;;5007642;28;20045;-83
2023/08/03 00:38:07;;;;;;;7.75;2.20;;;;;;;;;;5009494;28;20569;-86
2023/08/03 00:40:33;;;;;;;14.57;2.60;;;15.10;99.90;;;;;;5015363;28;20049;-85
2023/08/03 00:43:04;;;;;;;9.20;2.05;;;;;;;;;;5005540;28;20191;-85
2023/08/03 00:45:30;;;;;;;18.55;3.53;;;;;;;;;;5001377;28;20050;-84
2023/08/03 00:47:56;;;;;;;8.50;2.33;;;;;;;;;;5003003;28;20053;-81
2023/08/03 00:50:22;;;;;;;9.73;2.20;;;;;;;;;;5001155;28;20049;-83
2023/08/03 00:52:48;;;;;;;9.23;2.45;;;;;;;;;;5002217;28;20176;-85
2023/08/03 00:55:14;;;;;;;7.68;1.88;;;;;;;;;;5018938;28;20140;-82
2023/08/03 00:57:42;;;;;;;14.60;2.97;;;;;;;;;;5020062;28;20053;-83
2023/08/03 01:00:08;;;;;;;6.95;1.85;;;;;;;;;;5012259;28;20148;-84
2023/08/03 01:02:34;;;;;;;7.63;1.95;;;;;;;;;;5016721;28;20057;-85
2023/08/03 01:05:01;;;;;;;9.85;1.80;;;;;;;;;;4999771;28;20049;-85
2023/08/03 01:07:27;;;;;;;14.57;2.50;;;;;;;;;;5000232;28;20076;-83
2023/08/03 01:09:53;;;;;;;13.35;2.38;;;;;;;;;;5000320;28;20056;-83
2023/08/03 01:12:19;;;;;;;10.52;1.80;;;;;;;;;;5002779;28;20260;-84
2023/08/03 01:14:45;;;;;;;14.80;2.60;;;;;;;;;;5011319;28;20046;-85
2023/08/03 01:17:12;;;;;;;11.48;2.15;;;;;;;;;;5001956;28;20129;-83
2023/08/03 01:19:38;;;;;;;6.57;1.48;;;;;;;;;;5013030;28;20556;-83
2023/08/03 01:22:04;;;;;;;11.25;1.90;;;15.30;99.90;;;;;;5014462;28;20045;-86
2023/08/03 01:24:30;;;;;;;6.63;1.63;;;;;;;;;;5004535;28;20061;-85
2023/08/03 01:26:59;;;;;;;7.85;1.50;;;;;;;;;;5007068;28;20053;-85
2023/08/03 01:29:25;;;;;;;6.50;1.83;;;;;;;;;;5003866;28;20052;-84
2023/08/03 01:31:56;;;;;;;8.52;1.60;;;;;;;;;;5017961;28;20056;-83
2023/08/03 01:34:23;;;;;;;9.55;2.05;;;;;;;;;;5007939;28;20685;-85
2023/08/03 01:36:50;;;;;;;12.27;1.98;;;;;;;;;;5001493;28;20046;-83
2023/08/03 01:39:16;;;;;;;7.57;1.40;;;;;;;;;;5006949;28;20115;-83
2023/08/03 01:41:42;;;;;;;6.35;1.45;;;;;;;;;;5013443;28;20053;-82
2023/08/03 01:44:25;;;;;;;3.38;1.23;;;15.20;99.90;;;;;;5013844;28;20312;-82
2023/08/03 01:46:51;;;;;;;;;;;15.20;99.90;;;;;;5006904;28;20061;-82
2023/08/03 01:49:18;;;;;;;6.40;0.70;;;;;;;;;;5005662;28;20385;-81
2023/08/03 01:51:44;;;;;;;4.25;1.00;;;;;;;;;;5005745;28;20201;-81
2023/08/03 01:54:11;;;;;;;5.22;1.17;;;15.20;99.90;;;;;;5006868;28;20459;-83
2023/08/03 01:56:37;;;;;;;7.20;1.13;;;;;;;;;;5005537;28;20354;-85
2023/08/03 01:59:03;;;;;;;5.05;1.30;;;;;;;;;;5003052;28;20053;-84
2023/08/03 02:01:30;;;;;;;5.90;1.08;;;;;;;;;;5009600;28;20053;-85
2023/08/03 02:03:56;;;;;;;6.38;1.23;;;;;;;;;;5001099;28;20053;-83
2023/08/03 02:06:22;;;;;;;5.47;1.00;;;;;;;;;;5006247;28;20061;-87
2023/08/03 02:08:48;;;;;;;7.05;1.15;;;;;;;;;;5006619;28;20133;-84
2023/08/03 02:11:14;;;;;;;4.90;1.20;;;;;;;;;;5000612;28;20042;-81
2023/08/03 02:13:40;;;;;;;6.15;1.27;;;;;;;;;;5001100;28;20097;-83
2023/08/03 02:16:10;;;;;;;6.72;1.05;;;;;;;;;;5009563;28;20354;-84
2023/08/03 02:18:39;;;;;;;7.38;1.20;;;15.30;99.90;;;;;;4993218;28;20093;-84
2023/08/03 02:21:08;;;;;;;9.93;1.85;;;15.30;99.90;;;;;;5000402;28;20129;-84
2023/08/03 02:23:34;;;;;;;3.58;1.10;;;;;;;;;;5019235;28;20144;-87
2023/08/03 02:26:03;;;;;;;6.15;1.20;;;;;;;;;;5008012;28;20590;-84
2023/08/03 02:28:33;;;;;;;7.43;1.13;;;;;;;;;;4995216;28;20129;-80
2023/08/03 02:30:59;;;;;;;4.22;1.17;;;;;;;;;;5008370;28;20481;-83
2023/08/03 02:33:25;;;;;;;4.93;1.13;;;;;;;;;;5001354;28;20175;-83
2023/08/03 02:35:51;;;;;;;8.38;1.60;;;;;;;;;;5003579;28;20068;-83
2023/08/03 02:38:17;;;;;;;6.50;1.65;;;;;;;;;;5000652;28;20423;-86
2023/08/03 02:40:44;;;;;;;8.45;2.15;;;;;;;;;;5000383;28;20058;-87
2023/08/03 02:43:10;;;;;;;4.93;1.45;;;;;;;;;;5000601;28;20045;-86
2023/08/03 02:45:36;;;;;;;6.30;1.73;;;;;;;;;;5012751;28;20806;-86
2023/08/03 02:48:02;;;;;;;9.23;2.10;;;;;;;;;;5004123;28;20064;-84
2023/08/03 02:50:28;;;;;;;8.93;1.83;;;;;;;;;;5003969;28;20046;-84
2023/08/03 02:52:54;;;;;;;7.10;2.15;;;;;;;;;;5016524;28;20049;-87
2023/08/03 02:55:20;;;;;;;7.45;1.92;;;;;;;;;;5009178;28;20439;-86
2023/08/03 02:57:46;;;;;;;5.57;2.05;;;;;;;;;;5014929;28;20049;-85
2023/08/03 03:00:13;;;;;;;14.52;2.38;;;;;;;;;;5004755;28;20092;-86
2023/08/03 03:02:39;;;;;;;13.75;3.08;;;;;;;;;;4997987;28;20439;-87
2023/08/03 03:05:05;;;;;;;8.38;2.22;;;;;;;;;;5006430;28;20045;-83
2023/08/03 03:07:32;;;;;;;4.78;2.13;;;;;;;;;;5008395;28;20045;-83
2023/08/03 03:09:58;;;;;;;8.02;2.53;;;;;;;;;;5007295;28;20053;-84
2023/08/03 03:12:24;;;;;;;28.50;4.07;;;;;;;;;;5009423;28;20710;-82
2023/08/03 03:14:50;;;;;;;17.70;3.40;;;;;;;;;;5010840;28;20060;-79
2023/08/03 03:17:16;;;;;;;9.35;2.67;;;;;;;;;;5015453;28;20057;-81
2023/08/03 03:19:43;;;;;;;11.77;2.88;;;;;;;;;;5014107;28;20053;-80
2023/08/03 03:22:11;;;;;;;6.82;2.60;;;;;;;;;;5007348;28;20144;-80
2023/08/03 03:24:37;;;;;;;5.03;2.33;;;;;;;;;;5018394;28;20058;-79
2023/08/03 03:27:03;;;;;;;5.68;2.20;;;;;;;;;;5002840;28;20049;-80
2023/08/03 03:29:29;;;;;;;11.40;3.58;;;;;;;;;;5012054;28;20073;-83
2023/08/03 03:31:55;;;;;;;9.63;2.75;;;;;;;;;;5010682;28;20052;-81
2023/08/03 03:34:21;;;;;;;5.70;2.22;;;;;;;;;;5002454;28;20054;-83
2023/08/03 03:36:48;;;;;;;4.72;2.65;;;;;;;;;;5008828;28;20059;-84
2023/08/03 03:39:14;;;;;;;4.55;3.00;;;;;;;;;;5003684;28;20046;-84
2023/08/03 03:41:40;;;;;;;8.52;4.03;;;;;;;;;;5003803;28;20126;-83
2023/08/03 03:44:07;;;;;;;9.45;4.22;;;;;;;;;;5014739;28;20522;-84
2023/08/03 03:46:34;;;;;;;6.93;3.80;;;;;;;;;;5019784;28;20049;-84
2023/08/03 03:49:00;;;;;;;9.95;5.40;;;;;;;;;;5008889;28;20382;-84
2023/08/03 03:51:26;;;;;;;9.15;4.85;;;;;;;;;;5008742;28;20042;-85
2023/08/03 03:53:52;;;;;;;10.15;5.35;;;;;;;;;;5016705;28;20046;-85
2023/08/03 03:56:18;;;;;;;11.80;5.70;;;;;;;;;;5018510;28;20829;-85
2023/08/03 03:58:44;;;;;;;12.98;6.65;;;;;;;;;;5011357;28;20084;-84
2023/08/03 04:01:10;;;;;;;19.88;7.93;;;;;;;;;;5011071;28;20050;-87
2023/08/03 04:03:36;;;;;;;15.90;7.70;;;;;;;;;;5015547;28;20046;-86
2023/08/03 04:06:02;;;;;;;21.35;9.05;;;;;;;;;;5007860;28;20056;-84
2023/08/03 04:08:29;;;;;;;11.60;7.57;;;;;;;;;;5004880;28;20072;-85
2023/08/03 04:10:55;;;;;;;18.20;7.45;;;;;;;;;;5008875;28;20049;-85
2023/08/03 04:13:21;;;;;;;20.08;8.63;;;;;;;;;;5010256;28;20049;-85
2023/08/03 04:15:47;;;;;;;23.23;9.43;;;;;;;;;;5010323;28;20034;-84
2023/08/03 04:18:14;;;;;;;17.67;9.00;;;;;;;;;;5007668;28;20045;-85
2023/08/03 04:20:40;;;;;;;23.15;9.88;;;;;;;;;;5008262;28;20069;-86
2023/08/03 04:23:06;;;;;;;19.20;8.05;;;;;;;;;;5008381;28;20085;-86
2023/08/03 04:25:33;;;;;;;23.92;9.48;;;;;;;;;;5015996;28;20053;-86
2023/08/03 04:27:59;;;;;;;17.00;8.02;;;;;;;;;;5011810;28;20057;-84
2023/08/03 04:30:25;;;;;;;22.20;8.48;;;;;;;;;;5012990;28;20127;-85
2023/08/03 04:32:51;;;;;;;16.42;7.90;;;;;;;;;;5005974;28;20152;-87
2023/08/03 04:35:17;;;;;;;15.52;7.68;;;;;;;;;;5004178;28;20057;-84
2023/08/03 04:37:43;;;;;;;24.27;9.52;;;;;;;;;;5010811;28;20500;-85
2023/08/03 04:40:10;;;;;;;20.27;8.95;;;;;;;;;;5012270;28;20053;-84
2023/08/03 04:42:36;;;;;;;19.58;8.10;;;;;;;;;;5016838;28;20077;-87
2023/08/03 04:45:02;;;;;;;15.70;8.05;;;;;;;;;;5009153;28;20049;-85
2023/08/03 04:47:28;;;;;;;18.48;8.15;;;;;;;;;;5010291;28;20076;-84
2023/08/03 04:49:54;;;;;;;19.42;7.93;;;;;;;;;;5006965;28;20092;-85
2023/08/03 04:52:21;;;;;;;26.42;7.75;;;;;;;;;;5011291;28;20053;-84
2023/08/03 04:54:47;;;;;;;16.50;7.53;;;;;;;;;;5009369;28;20494;-85
2023/08/03 04:57:13;;;;;;;29.05;8.95;;;;;;;;;;5012261;28;20041;-83
2023/08/03 04:59:39;;;;;;;22.83;7.00;;;;;;;;;;5011019;28;20042;-84
2023/08/03 05:02:05;;;;;;;19.77;6.60;;;;;;;;;;5009024;28;20152;-85
2023/08/03 05:04:32;;;;;;;23.17;6.95;;;;;;;;;;5008077;28;20464;-85
2023/08/03 05:06:58;;;;;;;25.95;7.22;;;;;;;;;;5012047;28;20057;-84
2023/08/03 05:09:24;;;;;;;31.98;8.25;;;;;;;;;;5011931;28;20144;-85
2023/08/03 05:11:50;;;;;;;20.80;6.32;;;;;;;;;;5009500;28;20053;-84
2023/08/03 05:14:16;;;;;;;18.38;5.85;;;;;;;;;;5002186;28;20046;-86
2023/08/03 05:16:42;;;;;;;22.65;5.13;;;;;;;;;;4999158;28;20253;-86
2023/08/03 05:19:08;;;;;;;16.27;4.82;;;;;;;;;;5011536;28;20085;-83
2023/08/03 05:21:34;;;;;;;19.38;4.32;;;;;;;;;;5002559;28;20046;-86
2023/08/03 05:24:00;;;;;;;19.67;4.55;;;;;;;;;;5001452;28;20060;-85
2023/08/03 05:26:26;;;;;;;19.08;3.75;;;;;;;;;;5003274;28;20129;-86
2023/08/03 05:28:53;;;;;;;18.20;4.22;;;;;;;;;;5007073;28;20060;-83
2023/08/03 05:31:19;;;;;;;15.45;4.25;;;;;;;;;;5002919;28;20171;-83
2023/08/03 05:33:45;;;;;;;17.65;3.92;;;;;;;;;;5005571;28;20045;-82
2023/08/03 05:36:12;;;;;;;17.40;4.85;;;;;;;;;;5007049;28;20377;-82
2023/08/03 05:38:38;;;;;;;14.80;5.03;;;;;;;;;;5000086;28;20407;-83
2023/08/03 05:41:04;;;;;;;14.32;4.32;;;;;;;;;;5013384;28;20363;-86
2023/08/03 05:43:31;;;;;;;16.77;3.50;;;;;;;;;;5008994;28;20546;-83
2023/08/03 05:46:06;;;;;;;11.90;3.55;;;;;;;;;;5001795;28;20096;-83
2023/08/03 05:48:32;;;;;;;10.63;3.95;;;;;;;;;;5007529;28;20058;-84
2023/08/03 05:50:58;;;;;;;12.55;4.50;;;;;;;;;;5003294;28;20050;-87
2023/08/03 05:53:24;;;;;;;21.83;4.78;;;;;;;;;;5011030;28;20046;-81
2023/08/03 05:55:51;;;;;;;13.73;4.57;;;;;;;;;;5004457;28;20435;-81
2023/08/03 05:58:17;;;;;;;21.52;4.88;;;;;;;;;;5009035;28;20120;-81
2023/08/03 06:00:46;;;;;;;16.55;4.57;;;;;;;;;;5006760;28;20453;-81
2023/08/03 06:03:14;;;;;;;16.42;3.78;;;16.10;99.90;;;;;;5013017;28;20304;-82
2023/08/03 06:05:41;;;;;;;13.68;4.53;;;;;;;;;;5006649;28;20112;-82
2023/08/03 06:08:18;;;;;;;10.52;4.28;;;;;;;;;;5004590;28;20057;-84
2023/08/03 06:10:46;;;;;;;15.23;4.13;;;;;;;;;;5000675;28;20139;-82
2023/08/03 06:13:14;;;;;;;10.65;4.25;;;16.50;99.90;;;;;;5004597;28;20049;-86
2023/08/03 06:15:44;;;;;;;17.75;6.25;;;16.60;99.90;;;;;;4994549;28;20113;-85
2023/08/03 06:18:15;;;;;;;14.40;4.32;;;16.70;99.90;;;;;;5007976;28;20053;-80
2023/08/03 06:20:52;;;;;;;12.63;4.78;;;16.80;99.90;;;;;;5027638;28;20045;-86
2023/08/03 06:23:19;;;;;;;15.55;4.40;;;;;;;;;;5016053;28;20060;-88
2023/08/03 06:25:46;;;;;;;14.88;4.75;;;;;;;;;;5016349;28;20055;-85
2023/08/03 06:28:21;;;;;;;16.42;5.22;;;17.00;99.90;;;;;;5011534;28;20049;-85
2023/08/03 06:30:48;;;;;;;14.13;4.60;;;;;;;;;;5010768;28;20045;-83
2023/08/03 06:33:16;;;;;;;18.13;5.22;;;16.90;99.90;;;;;;5005360;28;20274;-85
2023/08/03 06:35:44;;;;;;;12.00;3.97;;;16.90;99.90;;;;;;5005333;28;20073;-86
2023/08/03 06:38:12;;;;;;;11.15;4.20;;;16.90;99.90;;;;;;5009749;28;20046;-84
2023/08/03 06:40:42;;;;;;;9.48;3.63;;;16.80;99.90;;;;;;5009785;28;20246;-89
2023/08/03 06:43:12;;;;;;;14.48;5.30;;;16.80;99.90;;;;;;5003348;28;20061;-83
2023/08/03 06:45:39;;;;;;;11.55;4.72;;;;;;;;;;4998740;28;20062;-83
2023/08/03 06:48:05;;;;;;;8.75;3.58;;;;;;;;;;5009669;28;20522;-83
2023/08/03 06:50:32;;;;;;;9.05;4.38;;;;;;;;;;5021930;28;20100;-83
2023/08/03 06:52:59;;;;;;;14.25;5.40;;;;;;;;;;4995621;28;20045;-82
2023/08/03 06:55:26;;;;;;;10.13;4.28;;;;;;;;;;5009118;28;20053;-83
2023/08/03 06:57:53;;;;;;;17.10;4.50;;;;;;;;;;5009144;28;20051;-81
2023/08/03 07:00:19;;;;;;;14.80;4.32;;;;;;;;;;5016658;28;20050;-80
2023/08/03 07:02:47;;;;;;;7.72;4.07;;;17.30;99.90;;;;;;5006472;28;20450;-81
2023/08/03 07:05:13;;;;;;;12.60;3.63;;;;;;;;;;5014508;28;20046;-83
2023/08/03 07:07:39;;;;;;;9.45;3.13;;;;;;;;;;5005935;28;20042;-80
2023/08/03 07:10:08;;;;;;;11.65;3.33;;;;;;;;;;5008117;28;20290;-84
2023/08/03 07:12:35;;;;;;;10.45;3.28;;;;;;;;;;5026867;28;20048;-86
2023/08/03 07:15:02;;;;;;;12.13;3.67;;;;;;;;;;5020534;28;20050;-85
2023/08/03 07:17:28;;;;;;;8.20;3.17;;;;;;;;;;5013495;28;20092;-82
2023/08/03 07:19:54;;;;;;;5.75;2.85;;;;;;;;;;5009923;28;20073;-80
2023/08/03 07:22:24;;;;;;;6.72;2.58;;;;;;;;;;5006680;28;20098;-82
2023/08/03 07:24:50;;;;;;;5.22;2.33;;;;;;;;;;5006631;28;20092;-84
2023/08/03 07:27:17;;;;;;;4.53;1.98;;;;;;;;;;5015036;28;20049;-79
2023/08/03 07:29:43;;;;;;;5.30;1.88;;;;;;;;;;5012896;28;20069;-80
2023/08/03 07:32:11;;;;;;;5.10;1.02;;;;;;;;;;5006548;28;20514;-82
2023/08/03 07:34:38;;;;;;;7.05;1.35;;;;;;;;;;5003972;28;20136;-79
2023/08/03 07:37:04;;;;;;;2.92;0.90;;;;;;;;;;5003661;28;20077;-79
2023/08/03 07:39:30;;;;;;;3.33;0.90;;;;;;;;;;5010199;28;20071;-82
2023/08/03 07:41:56;;;;;;;3.67;1.30;;;;;;;;;;5009555;28;20052;-81
2023/08/03 07:44:22;;;;;;;6.07;1.20;;;;;;;;;;5009936;28;20057;-81
2023/08/03 07:46:48;;;;;;;4.60;0.85;;;;;;;;;;5006868;28;20050;-83
2023/08/03 07:49:15;;;;;;;5.45;0.80;;;;;;;;;;5010672;28;20624;-87
2023/08/03 07:51:41;;;;;;;3.50;0.77;;;;;;;;;;5010884;28;20057;-79
2023/08/03 07:54:07;;;;;;;5.72;0.65;;;;;;;;;;5014453;28;20090;-81
2023/08/03 07:56:33;;;;;;;3.33;0.52;;;;;;;;;;5027026;28;20344;-79
2023/08/03 07:59:00;;;;;;;1.55;0.35;;;;;;;;;;5015500;28;20613;-80
2023/08/03 08:01:27;;;;;;;1.90;0.43;;;;;;;;;;5018161;28;20503;-81
2023/08/03 08:03:53;;;;;;;2.33;0.43;;;;;;;;;;5015052;28;20151;-79
2023/08/03 08:06:20;;;;;;;2.90;0.40;;;;;;;;;;5013774;28;20140;-81
2023/08/03 08:08:47;;;;;;;1.63;0.30;;;;;;;;;;5002908;28;20048;-81
2023/08/03 08:11:15;;;;;;;1.85;0.30;;;;;;;;;;5018323;28;20044;-83
2023/08/03 08:13:41;;;;;;;1.33;0.45;;;;;;;;;;5010683;28;20053;-81
2023/08/03 08:16:08;;;;;;;2.72;0.35;;;;;;;;;;5009850;28;20089;-87
2023/08/03 08:18:35;;;;;;;1.17;0.20;;;;;;;;;;5011237;28;20636;-80
2023/08/03 08:21:02;;;;;;;3.65;0.50;;;;;;;;;;5005630;28;20050;-82
2023/08/03 08:23:28;;;;;;;1.58;0.20;;;;;;;;;;5004783;28;20064;-82
2023/08/03 08:25:54;;;;;;;1.50;0.40;;;;;;;;;;5008198;28;20061;-82
2023/08/03 08:28:20;;;;;;;3.38;0.20;;;;;;;;;;5013915;28;20503;-82
2023/08/03 08:30:47;;;;;;;3.97;0.20;;;;;;;;;;5014579;28;20054;-83
2023/08/03 08:33:16;;;;;;;3.28;0.20;;;;;;;;;;5012780;28;20046;-82
2023/08/03 08:35:43;;;;;;;3.65;1.05;;;;;;;;;;5014256;28;20133;-81
2023/08/03 08:38:09;;;;;;;3.10;0.20;;;;;;;;;;5014113;28;20125;-80
2023/08/03 08:40:36;;;;;;;3.05;0.20;;;;;;;;;;5007361;28;20510;-83
2023/08/03 08:43:02;;;;;;;0.77;0.10;;;;;;;;;;5021195;28;20057;-83
2023/08/03 08:45:32;;;;;;;1.77;0.20;;;23.40;99.90;;;;;;5007177;28;20085;-81
2023/08/03 08:47:59;;;;;;;1.85;0.20;;;;;;;;;;5009031;28;20144;-81
2023/08/03 08:50:24;;;;;;;1.33;0.10;;;24.50;99.90;;;;;;5006739;28;20045;-84
2023/08/03 08:52:52;;;;;;;3.83;0.20;;;24.60;99.90;;;;;;5005377;28;20052;-82
2023/08/03 08:55:24;;;;;;;2.40;0.10;;;24.90;99.90;;;;;;5010494;28;20049;-82
2023/08/03 08:57:53;;;;;;;4.97;0.20;;;;;;;;;;5013529;28;20495;-85
2023/08/03 09:00:20;;;;;;;2.08;0.13;;;;;;;;;;5002580;28;20101;-82
2023/08/03 09:02:46;;;;;;;1.75;0.17;;;;;;;;;;5012613;28;20050;-80
2023/08/03 09:05:12;;;;;;;3.95;0.20;;;;;;;;;;5003169;28;20590;-82
2023/08/03 09:07:38;;;;;;;1.85;0.10;;;;;;;;;;5007469;28;20049;-84
2023/08/03 09:10:05;;;;;;;2.20;0.10;;;;;;;;;;5007328;28;20042;-78
2023/08/03 09:12:31;;;;;;;3.42;0.40;;;;;;;;;;5012314;28;20046;-80
2023/08/03 09:15:00;;;;;;;1.65;0.10;;;;;;;;;;5015369;28;20050;-78
2023/08/03 09:17:27;;;;;;;2.17;0.20;;;28.30;99.90;;;;;;5007814;28;20569;-78
2023/08/03 09:19:53;;;;;;;5.70;0.20;;;;;;;;;;5011582;28;20050;-81
2023/08/03 09:22:21;;;;;;;1.67;0.10;;;29.10;99.90;;;;;;5006469;28;20530;-79
2023/08/03 09:25:05;;;;;;;2.28;0.47;;;29.60;99.90;;;;;;5008143;28;20053;-77
2023/08/03 09:27:31;;;;;;;1.98;0.30;;;;;;;;;;4989100;28;20071;-80
2023/08/03 09:30:02;;;;;;;2.72;0.28;;;29.70;99.90;;;;;;5011143;28;20136;-79
2023/08/03 09:32:34;;;;;;;3.22;0.45;;;;;;;;;;5001338;28;20514;-80
2023/08/03 09:35:00;;;;;;;3.35;0.25;;;;;;;;;;5003707;28;20116;-77
2023/08/03 09:37:36;;;;;;;1.45;0.13;;;29.60;99.90;;;;;;5008556;28;20049;-79
2023/08/03 09:40:05;;;;;;;0.68;0.10;;;29.10;99.90;;;;;;4997070;28;21348;-78
2023/08/03 09:42:32;;;;;;;2.17;0.13;;;;;;;;;;5001068;28;20042;-80
2023/08/03 09:45:02;;;;;;;4.68;0.20;;;28.40;99.90;;;;;;5012930;28;20076;-77
2023/08/03 09:47:30;;;;;;;5.80;0.40;;;;;;;;;;4997011;28;20052;-82
2023/08/03 09:49:56;;;;;;;1.08;0.10;;;;;;;;;;4317741;28;10000646;-81
2023/08/03 09:52:25;;;;;;;2.85;0.20;;;;;;;;;;4999735;28;20080;-82
2023/08/03 09:55:06;;;;;;;2.92;0.10;;;;;;;;;;4997108;28;20057;-81
2023/08/03 09:57:35;;;;;;;1.38;0.10;;;;;;;;;;5009275;28;20061;-84
2023/08/03 10:00:08;;;;;;;1.65;0.30;;;;;;;;;;5000130;28;20062;-79
2023/08/03 10:02:55;;;;;;;2.50;0.22;;;27.80;99.90;;;;;;5020024;28;20054;-80
2023/08/03 10:05:23;;;;;;;2.75;0.10;;;27.60;99.90;;;;;;4997675;28;20061;-82
2023/08/03 10:08:04;;;;;;;1.92;0.10;;;27.70;99.90;;;;;;5002774;28;20132;-82
2023/08/03 10:10:35;;;;;;;2.50;0.10;;;28.20;99.90;;;;;;4995557;28;21052;-83
2023/08/03 10:13:03;;;;;;;3.10;0.73;;;28.30;99.90;;;;;;5011594;28;20053;-84
2023/08/03 10:15:30;;;;;;;1.33;0.10;;;27.60;99.90;;;;;;4991323;28;20295;-80
2023/08/03 10:17:57;;;;;;;1.58;0.10;;;;;;;;;;5003335;28;20426;-78
2023/08/03 10:20:23;;;;;;;4.45;0.20;;;27.00;99.90;;;;;;5005773;28;20042;-80
2023/08/03 10:23:16;;;;;;;2.58;0.20;;;27.30;99.90;;;;;;5021747;28;20056;-83
2023/08/03 10:26:00;;;;;;;3.70;0.30;;;27.60;99.90;;;;;;5001979;28;20038;-82
2023/08/03 10:28:43;;;;;;;3.92;0.30;;;27.90;99.90;;;;;;5013747;28;20052;-78
2023/08/03 10:31:14;;;;;;;4.78;0.65;;;28.00;99.90;;;;;;5006511;28;20073;-79
2023/08/03 10:33:46;;;;;;;2.97;0.28;;;27.60;99.90;;;;;;5009879;28;20554;-79
2023/08/03 10:36:30;;;;;;;2.88;0.13;;;26.90;99.90;;;;;;5011176;28;20053;-82
2023/08/03 10:39:00;;;;;;;3.97;0.20;;;26.10;99.90;;;;;;5024332;28;20065;-80
2023/08/03 10:41:36;;;;;;;2.75;0.20;;;25.30;99.90;;;;;;5004328;28;20030;-81
2023/08/03 10:44:14;;;;;;;2.63;0.20;;;;;;;;;;5004141;28;20050;-79
2023/08/03 10:46:41;;;;;;;2.55;0.30;;;;;;;;;;5019412;28;20046;-81
2023/08/03 10:49:29;;;;;;;2.92;0.17;;;25.30;99.90;;;;;;4998381;28;20038;-79
2023/08/03 10:51:55;;;;;;;2.00;0.20;;;;;;;;;;5014487;28;20065;-76
2023/08/03 10:54:29;;;;;;;3.30;0.35;;;25.50;99.90;;;;;;5010590;28;20072;-76
2023/08/03 10:57:05;;;;;;;3.47;0.43;;;24.90;99.90;;;;;;5007808;28;20135;-82
2023/08/03 10:59:45;;;;;;;1.35;0.25;;;24.60;99.90;;;;;;5005658;28;20048;-83
2023/08/03 11:02:13;;;;;;;3.45;0.40;;;;;;;;;;4996787;28;20048;-86
2023/08/03 11:04:39;;;;;;;3.42;0.40;;;;;;;;;;5006425;28;20054;-78
2023/08/03 11:07:07;;;;;;;3.67;0.60;;;;;;;;;;5006005;28;20041;-85
2023/08/03 11:09:33;;;;;;;5.95;0.60;;;;;;;;;;5008292;28;20042;-80
2023/08/03 11:11:59;;;;;;;10.07;0.80;;;23.00;99.90;;;;;;5012122;28;20431;-77
2023/08/03 11:14:28;;;;;;;3.25;0.30;;;22.90;99.90;;;;;;5018225;28;20144;-84
2023/08/03 11:16:54;;;;;;;2.50;0.20;;;22.80;99.90;;;;;;5003332;28;20060;-78
2023/08/03 11:19:22;;;;;;;3.35;0.30;;;;;;;;;;5003914;28;20130;-77
2023/08/03 11:21:48;;;;;;;5.20;0.40;;;;;;;;;;5012622;28;20124;-81
2023/08/03 11:24:14;;;;;;;3.38;0.40;;;;;;;;;;4986794;28;20158;-79
2023/08/03 11:26:40;;;;;;;3.47;0.25;;;;;;;;;;5012013;28;20064;-84
2023/08/03 11:29:06;;;;;;;5.53;0.52;;;;;;;;;;5005443;28;20472;-81
2023/08/03 11:31:33;;;;;;;4.90;0.30;;;;;;;;;;5004496;28;20418;-82
2023/08/03 11:33:59;;;;;;;3.40;0.30;;;;;;;;;;5011129;28;20146;-86
2023/08/03 11:36:25;;;;;;;4.07;0.47;;;;;;;;;;5002815;28;20053;-81
2023/08/03 11:38:52;;;;;;;2.85;0.30;;;;;;;;;;4996757;28;20041;-81
2023/08/03 11:41:20;;;;;;;3.55;0.40;;;;;;;;;;5008421;28;20376;-81
2023/08/03 11:43:47;;;;;;;2.63;0.25;;;;;;;;;;5005400;28;20050;-82
2023/08/03 11:46:13;;;;;;;3.60;0.30;;;;;;;;;;5009831;28;20120;-81
2023/08/03 11:48:44;;;;;;;5.18;0.40;;;;;;;;;;5012350;28;20096;-84
2023/08/03 11:51:10;;;;;;;6.25;0.82;;;;;;;;;;5005346;28;20057;-81
2023/08/03 11:53:40;;;;;;;2.90;0.50;;;;;;;;;;5002772;28;20145;-84
2023/08/03 11:56:08;;;;;;;2.85;0.57;;;;;;;;;;5010001;28;20120;-84
2023/08/03 11:58:35;;;;;;;5.03;0.40;;;;;;;;;;4989327;28;20364;-78
2023/08/03 12:01:02;;;;;;;2.58;0.25;;;;;;;;;;5013607;28;20053;-82
2023/08/03 12:03:38;;;;;;;2.28;0.28;;;;;;;;;;5007076;28;20068;-79
2023/08/03 12:06:05;;;;;;;3.53;0.28;;;;;;;;;;5005759;28;20057;-80
2023/08/03 12:08:51;;;;;;;1.92;0.35;;;;;;;;;;5002298;28;20628;-78
2023/08/03 12:11:18;;;;;;;3.50;0.38;;;;;;;;;;5018762;28;20042;-87
2023/08/03 12:13:45;;;;;;;2.90;0.28;;;;;;;;;;5017629;28;20065;-86
2023/08/03 12:16:11;;;;;;;2.05;0.20;;;;;;;;;;5007724;28;20278;-83
2023/08/03 12:18:37;;;;;;;1.83;0.20;;;;;;;;;;5004407;28;20042;-78
2023/08/03 12:21:03;;;;;;;10.60;1.13;;;;;;;;;;5002873;28;20042;-77
2023/08/03 12:23:29;;;;;;;4.05;0.20;;;;;;;;;;5021006;28;20072;-81
2023/08/03 12:25:56;;;;;;;4.40;0.20;;;;;;;;;;5013234;28;20503;-83
2023/08/03 12:28:21;;;;;;;4.97;0.80;;;22.70;99.90;;;;;;5002872;28;20529;-83
2023/08/03 12:30:48;;;;;;;5.05;0.45;;;;;;;;;;5010538;28;20061;-82
2023/08/03 12:33:14;;;;;;;6.03;0.88;;;;;;;;;;5011719;28;20045;-81
2023/08/03 12:35:40;;;;;;;2.17;0.20;;;;;;;;;;5002525;28;20434;-81
2023/08/03 12:38:06;;;;;;;5.93;0.57;;;;;;;;;;5012859;28;20042;-83
2023/08/03 12:40:33;;;;;;;2.20;0.20;;;;;;;;;;4995147;28;20640;-82
2023/08/03 12:42:59;;;;;;;2.53;0.20;;;;;;;;;;5004616;28;20395;-84
2023/08/03 12:45:25;;;;;;;5.60;0.35;;;22.90;99.90;;;;;;5021342;28;20045;-81
2023/08/03 12:47:53;;;;;;;3.42;0.30;;;22.80;99.90;;;;;;4988511;28;20381;-82
2023/08/03 12:50:20;;;;;;;4.50;0.30;;;;;;;;;;4663047;28;10000268;-80
2023/08/03 12:52:46;;;;;;;2.25;0.20;;;;;;;;;;4995143;28;20046;-85
2023/08/03 12:55:13;;;;;;;3.17;0.22;;;;;;;;;;5001967;28;20169;-82
2023/08/03 12:57:39;;;;;;;2.88;0.68;;;;;;;;;;5002173;28;20502;-79
2023/08/03 13:00:06;;;;;;;2.92;0.30;;;;;;;;;;5010695;28;20152;-79
2023/08/03 13:02:33;;;;;;;1.50;0.20;;;;;;;;;;5004113;28;20054;-84
2023/08/03 13:04:59;;;;;;;3.92;0.20;;;;;;;;;;5008668;28;20049;-85
2023/08/03 13:07:28;;;;;;;3.38;0.30;;;;;;;;;;5002106;28;20052;-85
2023/08/03 13:09:54;;;;;;;5.38;1.08;;;;;;;;;;5005930;28;20050;-86
2023/08/03 13:12:21;;;;;;;4.18;0.77;;;;;;;;;;5009360;28;20049;-85
2023/08/03 13:14:49;;;;;;;5.22;0.73;;;;;;;;;;5012352;28;20727;-88
2023/08/03 13:17:15;;;;;;;3.58;0.50;;;;;;;;;;5011635;28;20045;-83
2023/08/03 13:19:42;;;;;;;4.55;0.70;;;;;;;;;;5002705;28;20096;-84
2023/08/03 13:22:08;;;;;;;4.03;0.50;;;;;;;;;;5000334;28;20050;-83
2023/08/03 13:24:34;;;;;;;5.95;0.47;;;;;;;;;;5007039;28;20045;-83
2023/08/03 13:27:18;;;;;;;4.72;0.60;;;22.60;99.90;;;;;;5000266;28;20075;-84
2023/08/03 13:29:47;;;;;;;6.95;0.70;;;22.40;99.90;;;;;;5004761;28;20172;-83
2023/08/03 13:32:14;;;;;;;6.55;1.10;;;21.90;99.90;;;;;;5001492;28;20049;-80
2023/08/03 13:34:40;;;;;;;3.65;1.05;;;22.50;99.90;;;;;;5002249;28;20443;-84
2023/08/03 13:37:06;;;;;;;4.50;1.30;;;;;;;;;;4996552;28;20050;-83
2023/08/03 13:39:32;;;;;;;6.13;0.60;;;;;;;;;;5000703;28;20721;-82
2023/08/03 13:41:59;;;;;;;6.22;1.05;;;;;;;;;;5002701;28;20121;-85
2023/08/03 13:44:25;;;;;;;3.65;0.50;;;;;;;;;;4999170;28;20478;-81
2023/08/03 13:46:51;;;;;;;2.88;0.40;;;;;;;;;;5005225;28;20494;-85
2023/08/03 13:49:18;;;;;;;4.90;0.82;;;;;;;;;;5001744;28;20052;-81
2023/08/03 13:51:45;;;;;;;6.03;0.55;;;;;;;;;;5000144;28;20042;-82
2023/08/03 13:54:11;;;;;;;5.85;0.70;;;;;;;;;;5007141;28;20042;-83
2023/08/03 13:56:37;;;;;;;3.33;0.45;;;;;;;;;;5010346;28;20038;-82
2023/08/03 13:59:04;;;;;;;4.35;0.50;;;;;;;;;;5009929;28;20056;-89
2023/08/03 14:01:36;;;;;;;3.05;0.50;;;;;;;;;;5011174;28;20474;-81
2023/08/03 14:04:03;;;;;;;6.88;0.70;;;;;;;;;;5000267;28;20053;-84
2023/08/03 14:06:29;;;;;;;4.72;0.65;;;;;;;;;;4997459;28;20096;-85
2023/08/03 14:08:55;;;;;;;7.40;1.38;;;;;;;;;;5001400;28;20136;-81
2023/08/03 14:11:21;;;;;;;9.20;1.50;;;;;;;;;;4995826;28;20095;-87
2023/08/03 14:13:47;;;;;;;7.78;0.98;;;;;;;;;;5005333;28;20056;-88
2023/08/03 14:16:17;;;;;;;6.47;0.93;;;;;;;;;;5008057;28;20052;-86
2023/08/03 14:18:43;;;;;;;7.28;1.50;;;;;;;;;;5005436;28;20507;-80